createdAt,value
2022-09-10T00:01:49.127Z,14.63
2022-09-10T00:04:48.155Z,14.65
2022-09-10T00:07:16.166Z,14.63
2022-09-10T00:09:42.452Z,14.63
2022-09-10T00:12:08.735Z,14.62
2022-09-10T00:14:35.684Z,14.62
2022-09-10T00:17:02.033Z,14.56
2022-09-10T00:19:30.065Z,14.56
2022-09-10T00:21:56.357Z,14.52
2022-09-10T00:24:22.720Z,14.48
2022-09-10T00:26:49.057Z,14.47
2022-09-10T00:29:18.279Z,14.42
2022-09-10T00:31:44.930Z,14.42
2022-09-10T00:34:12.376Z,14.36
2022-09-10T00:36:40.261Z,14.38
2022-09-10T00:39:13.734Z,14.38
2022-09-10T00:41:40.766Z,14.31
2022-09-10T00:44:27.050Z,14.21
2022-09-10T00:46:53.827Z,14.20
2022-09-10T00:49:23.967Z,14.20
2022-09-10T00:51:52.526Z,14.19
2022-09-10T00:54:21.036Z,14.18
2022-09-10T00:56:47.981Z,14.16
2022-09-10T00:59:16.465Z,14.10
2022-09-10T01:01:43.146Z,14.08
2022-09-10T01:04:10.617Z,13.97
2022-09-10T01:06:38.861Z,14.05
2022-09-10T01:09:06.162Z,14.05
2022-09-10T01:12:08.040Z,14.06
2022-09-10T01:14:40.105Z,14.05
2022-09-10T01:17:19.431Z,13.97
2022-09-10T01:20:04.649Z,13.96
2022-09-10T01:22:31.878Z,14.03
2022-09-10T01:25:04.807Z,14.02
2022-09-10T01:27:31.090Z,14.14
2022-09-10T01:30:15.202Z,14.18
2022-09-10T01:32:44.302Z,14.01
2022-09-10T01:35:22.785Z,14.08
2022-09-10T01:37:56.794Z,14.09
2022-09-10T01:40:29.706Z,14.07
2022-09-10T01:43:00.583Z,14.07
2022-09-10T01:45:28.674Z,14.07
2022-09-10T01:47:57.841Z,14.09
2022-09-10T01:50:24.175Z,14.09
2022-09-10T01:52:53.562Z,14.07
2022-09-10T01:55:26.745Z,14.07
2022-09-10T01:58:04.259Z,14.05
2022-09-10T02:00:33.356Z,14.03
2022-09-10T02:03:04.257Z,13.97
2022-09-10T02:05:31.480Z,13.93
2022-09-10T02:08:00.396Z,13.98
2022-09-10T02:10:26.707Z,13.99
2022-09-10T02:12:53.365Z,14.00
2022-09-10T02:15:22.305Z,14.02
2022-09-10T02:17:49.231Z,13.99
2022-09-10T02:20:16.007Z,13.96
2022-09-10T02:22:44.718Z,13.98
2022-09-10T02:25:11.144Z,13.99
2022-09-10T02:27:38.263Z,13.96
2022-09-10T02:30:05.965Z,13.96
2022-09-10T02:32:32.293Z,13.92
2022-09-10T02:34:58.651Z,13.89
2022-09-10T02:37:25.077Z,13.87
2022-09-10T02:39:51.424Z,13.86
2022-09-10T02:42:17.992Z,13.86
2022-09-10T02:44:44.975Z,13.85
2022-09-10T02:47:11.273Z,13.83
2022-09-10T02:49:37.547Z,13.80
2022-09-10T02:52:04.550Z,13.79
2022-09-10T02:54:30.841Z,13.77
2022-09-10T02:56:57.124Z,13.73
2022-09-10T02:59:24.199Z,13.63
2022-09-10T03:01:50.678Z,13.67
2022-09-10T03:04:17.420Z,13.70
2022-09-10T03:06:43.767Z,13.67
2022-09-10T03:09:10.975Z,13.67
2022-09-10T03:11:40.517Z,13.63
2022-09-10T03:14:08.304Z,13.62
2022-09-10T03:16:34.665Z,13.63
2022-09-10T03:19:00.966Z,13.57
2022-09-10T03:21:27.399Z,13.53
2022-09-10T03:23:53.969Z,13.58
2022-09-10T03:26:20.956Z,13.55
2022-09-10T03:28:47.849Z,13.56
2022-09-10T03:31:14.257Z,13.52
2022-09-10T03:33:43.583Z,13.54
2022-09-10T03:36:13.169Z,13.54
2022-09-10T03:38:40.129Z,13.51
2022-09-10T03:41:06.734Z,13.54
2022-09-10T03:43:33.096Z,13.59
2022-09-10T03:45:59.715Z,13.56
2022-09-10T03:48:26.065Z,13.52
2022-09-10T03:50:52.367Z,13.55
2022-09-10T03:53:19.343Z,13.51
2022-09-10T03:55:47.186Z,13.51
2022-09-10T03:58:14.058Z,13.61
2022-09-10T04:00:40.406Z,13.58
2022-09-10T04:03:06.785Z,13.47
2022-09-10T04:05:33.161Z,13.52
2022-09-10T04:07:59.799Z,13.51
2022-09-10T04:10:26.830Z,13.50
2022-09-10T04:12:53.496Z,13.47
2022-09-10T04:15:20.348Z,13.53
2022-09-10T04:17:47.158Z,13.52
2022-09-10T04:20:13.447Z,13.54
2022-09-10T04:22:39.724Z,13.48
2022-09-10T04:25:06.203Z,13.48
2022-09-10T04:27:32.506Z,13.46
2022-09-10T04:29:58.848Z,13.41
2022-09-10T04:32:25.129Z,13.46
2022-09-10T04:34:51.529Z,13.50
2022-09-10T04:37:19.576Z,13.47
2022-09-10T04:39:46.068Z,13.46
2022-09-10T04:42:15.348Z,13.47
2022-09-10T04:44:41.617Z,13.47
2022-09-10T04:47:07.899Z,13.45
2022-09-10T04:49:34.253Z,13.46
2022-09-10T04:52:00.594Z,13.44
2022-09-10T04:54:26.928Z,13.44
2022-09-10T04:56:53.336Z,13.42
2022-09-10T04:59:20.415Z,13.33
2022-09-10T05:01:50.209Z,13.36
2022-09-10T05:04:16.888Z,13.39
2022-09-10T05:06:43.164Z,13.38
2022-09-10T05:09:09.481Z,13.35
2022-09-10T05:11:36.696Z,13.35
2022-09-10T05:14:03.035Z,13.41
2022-09-10T05:16:29.344Z,13.37
2022-09-10T05:18:56.174Z,13.38
2022-09-10T05:21:22.590Z,13.34
2022-09-10T05:23:48.948Z,13.28
2022-09-10T05:26:15.278Z,13.37
2022-09-10T05:28:42.584Z,13.21
2022-09-10T05:31:09.700Z,13.34
2022-09-10T05:33:36.375Z,13.36
2022-09-10T05:36:02.836Z,13.49
2022-09-10T05:38:29.833Z,13.38
2022-09-10T05:40:57.020Z,13.47
2022-09-10T05:43:23.314Z,13.35
2022-09-10T05:45:51.882Z,13.45
2022-09-10T05:48:18.234Z,13.45
2022-09-10T05:50:47.730Z,13.51
2022-09-10T05:53:14.010Z,13.50
2022-09-10T05:55:40.369Z,13.69
2022-09-10T05:58:06.678Z,13.72
2022-09-10T06:00:33.609Z,13.69
2022-09-10T06:03:00.407Z,13.76
2022-09-10T06:05:26.871Z,13.57
2022-09-10T06:07:53.188Z,13.64
2022-09-10T06:10:19.986Z,13.73
2022-09-10T06:12:47.096Z,13.62
2022-09-10T06:15:13.555Z,13.55
2022-09-10T06:17:40.154Z,13.61
2022-09-10T06:20:06.574Z,13.51
2022-09-10T06:22:33.158Z,13.69
2022-09-10T06:24:59.497Z,13.58
2022-09-10T06:27:26.458Z,13.48
2022-09-10T06:29:52.755Z,13.63
2022-09-10T06:32:19.112Z,13.45
2022-09-10T06:34:45.408Z,13.29
2022-09-10T06:37:11.723Z,13.28
2022-09-10T06:39:38.149Z,13.31
2022-09-10T06:42:04.579Z,13.41
2022-09-10T06:44:30.865Z,13.45
2022-09-10T06:47:42.737Z,13.30
2022-09-10T06:49:43.510Z,13.27
2022-09-10T06:52:11.492Z,13.30
2022-09-10T06:54:37.795Z,13.54
2022-09-10T06:57:04.996Z,13.54
2022-09-10T06:59:34.979Z,13.43
2022-09-10T07:02:02.288Z,13.57
2022-09-10T07:04:28.630Z,13.65
2022-09-10T07:06:55.114Z,12.47
2022-09-10T07:09:21.402Z,13.24
2022-09-10T07:11:47.697Z,13.55
2022-09-10T07:14:14.155Z,13.86
2022-09-10T07:16:41.508Z,13.77
2022-09-10T07:19:07.850Z,14.05
2022-09-10T07:21:37.751Z,14.14
2022-09-10T07:24:05.738Z,14.14
2022-09-10T07:26:32.055Z,14.15
2022-09-10T07:28:58.881Z,14.43
2022-09-10T07:31:27.161Z,14.32
2022-09-10T07:33:54.729Z,14.55
2022-09-10T07:36:21.499Z,14.54
2022-09-10T07:38:51.160Z,14.66
2022-09-10T07:41:17.521Z,14.70
2022-09-10T07:43:44.270Z,14.81
2022-09-10T07:46:12.457Z,14.82
2022-09-10T07:48:39.691Z,14.94
2022-09-10T07:51:07.966Z,15.00
2022-09-10T07:53:34.614Z,15.07
2022-09-10T07:56:02.051Z,15.12
2022-09-10T07:58:31.959Z,15.19
2022-09-10T08:00:59.693Z,15.25
2022-09-10T08:03:26.998Z,15.29
2022-09-10T08:05:54.015Z,15.30
2022-09-10T08:08:20.446Z,15.30
2022-09-10T08:10:47.007Z,15.43
2022-09-10T08:13:13.309Z,15.57
2022-09-10T08:15:44.085Z,15.54
2022-09-10T08:18:11.382Z,15.73
2022-09-10T08:20:40.034Z,15.60
2022-09-10T08:23:06.942Z,15.57
2022-09-10T08:25:33.554Z,15.58
2022-09-10T08:28:00.744Z,15.63
2022-09-10T08:30:27.115Z,15.61
2022-09-10T08:32:53.404Z,15.68
2022-09-10T08:35:20.858Z,15.66
2022-09-10T08:37:47.799Z,15.83
2022-09-10T08:40:14.511Z,15.89
2022-09-10T08:42:45.846Z,15.94
2022-09-10T08:45:14.776Z,16.00
2022-09-10T08:47:41.039Z,15.95
2022-09-10T08:50:26.126Z,15.98
2022-09-10T08:52:59.295Z,15.90
2022-09-10T08:55:30.458Z,16.12
2022-09-10T08:58:11.244Z,16.18
2022-09-10T09:00:39.070Z,16.18
2022-09-10T09:03:11.440Z,16.19
2022-09-10T09:05:58.036Z,16.22
2022-09-10T09:08:25.789Z,16.37
2022-09-10T09:11:11.090Z,16.35
2022-09-10T09:13:43.884Z,16.47
2022-09-10T09:16:20.349Z,16.36
2022-09-10T09:18:46.621Z,16.57
2022-09-10T09:21:17.102Z,16.67
2022-09-10T09:24:12.766Z,16.74
2022-09-10T09:26:41.872Z,16.83
2022-09-10T09:29:28.693Z,16.87
2022-09-10T09:31:59.597Z,16.81
2022-09-10T09:34:33.220Z,16.98
2022-09-10T09:37:03.226Z,17.11
2022-09-10T09:39:53.352Z,17.11
2022-09-10T09:42:22.893Z,17.19
2022-09-10T09:45:04.331Z,17.21
2022-09-10T09:47:30.713Z,17.26
2022-09-10T09:49:59.420Z,17.29
2022-09-10T09:52:26.640Z,17.36
2022-09-10T09:55:13.887Z,17.36
2022-09-10T09:57:42.854Z,17.32
2022-09-10T10:00:47.818Z,17.41
2022-09-10T10:03:16.298Z,17.48
2022-09-10T10:05:42.899Z,17.46
2022-09-10T10:08:41.774Z,17.51
2022-09-10T10:11:08.566Z,17.34
2022-09-10T10:13:37.194Z,17.52
2022-09-10T10:16:16.643Z,17.32
2022-09-10T10:18:43.769Z,17.37
2022-09-10T10:21:15.141Z,17.55
2022-09-10T10:23:41.607Z,17.52
2022-09-10T10:26:24.758Z,17.45
2022-09-10T10:28:53.752Z,17.37
2022-09-10T10:31:20.539Z,17.49
2022-09-10T10:33:49.872Z,17.25
2022-09-10T10:36:26.183Z,17.28
2022-09-10T10:38:57.967Z,17.51
2022-09-10T10:41:33.544Z,17.65
2022-09-10T10:44:24.188Z,17.54
2022-09-10T10:47:13.599Z,17.58
2022-09-10T10:50:00.004Z,17.53
2022-09-10T10:52:26.309Z,17.52
2022-09-10T10:55:04.539Z,17.63
2022-09-10T10:57:49.733Z,17.79
2022-09-10T11:00:17.629Z,17.75
2022-09-10T11:02:59.401Z,17.85
2022-09-10T11:05:34.704Z,17.67
2022-09-10T11:08:08.462Z,17.67
2022-09-10T11:10:39.486Z,17.77
2022-09-10T11:13:25.605Z,17.85
2022-09-10T11:15:52.526Z,17.98
2022-09-10T11:18:18.879Z,18.02
2022-09-10T11:20:51.059Z,18.08
2022-09-10T11:23:36.335Z,18.11
2022-09-10T11:26:07.911Z,18.15
2022-09-10T11:29:01.477Z,18.22
2022-09-10T11:31:29.439Z,18.20
2022-09-10T11:33:59.692Z,18.25
2022-09-10T11:36:44.331Z,18.27
2022-09-10T11:39:20.504Z,18.31
2022-09-10T11:41:48.515Z,18.31
2022-09-10T11:44:36.477Z,18.35
2022-09-10T11:47:03.113Z,18.28
2022-09-10T11:49:29.422Z,18.37
2022-09-10T11:51:56.886Z,18.38
2022-09-10T11:54:27.700Z,18.31
2022-09-10T11:56:54.027Z,18.33
2022-09-10T11:59:23.165Z,18.29
2022-09-10T12:02:02.770Z,18.28
2022-09-10T12:04:33.477Z,18.18
2022-09-10T12:07:08.159Z,18.16
2022-09-10T12:09:53.167Z,18.01
2022-09-10T12:12:26.493Z,18.15
2022-09-10T12:14:53.900Z,18.19
2022-09-10T12:17:27.257Z,18.17
2022-09-10T12:19:55.644Z,18.16
2022-09-10T12:22:21.932Z,18.21
2022-09-10T12:25:08.583Z,18.14
2022-09-10T12:27:45.912Z,18.24
2022-09-10T12:30:24.441Z,18.23
2022-09-10T12:32:52.846Z,18.30
2022-09-10T12:35:31.384Z,18.09
2022-09-10T12:38:17.313Z,17.95
2022-09-10T12:40:44.768Z,18.16
2022-09-10T12:43:29.724Z,18.12
2022-09-10T12:46:16.437Z,18.26
2022-09-10T12:48:44.895Z,18.21
2022-09-10T12:51:17.012Z,18.19
2022-09-10T12:53:50.507Z,18.08
2022-09-10T12:56:35.360Z,17.91
2022-09-10T12:59:17.288Z,17.84
2022-09-10T13:01:46.372Z,18.02
2022-09-10T13:04:29.951Z,18.14
2022-09-10T13:07:01.403Z,18.16
2022-09-10T13:09:36.391Z,18.21
2022-09-10T13:12:05.856Z,18.27
2022-09-10T13:14:45.494Z,18.29
2022-09-10T13:17:30.420Z,18.35
2022-09-10T13:20:12.170Z,18.35
2022-09-10T13:22:58.358Z,18.36
2022-09-10T13:25:32.193Z,18.44
2022-09-10T13:27:58.714Z,18.46
2022-09-10T13:30:25.473Z,18.46
2022-09-10T13:32:55.151Z,18.20
2022-09-10T13:35:41.319Z,18.23
2022-09-10T13:38:19.921Z,18.25
2022-09-10T13:40:56.715Z,18.25
2022-09-10T13:43:25.827Z,18.31
2022-09-10T13:45:55.135Z,18.29
2022-09-10T13:48:21.481Z,18.26
2022-09-10T13:50:47.816Z,18.37
2022-09-10T13:53:15.917Z,18.39
2022-09-10T13:55:50.393Z,18.34
2022-09-10T13:58:18.333Z,18.30
2022-09-10T14:00:53.203Z,18.33
2022-09-10T14:03:21.493Z,18.30
2022-09-10T14:05:52.940Z,18.19
2022-09-10T14:08:22.145Z,18.10
2022-09-10T14:10:50.418Z,18.01
2022-09-10T14:13:20.108Z,17.95
2022-09-10T14:15:47.068Z,17.91
2022-09-10T14:18:13.853Z,17.79
2022-09-10T14:20:40.487Z,17.69
2022-09-10T14:23:12.402Z,17.66
2022-09-10T14:25:39.917Z,17.61
2022-09-10T14:28:15.360Z,17.61
2022-09-10T14:30:42.416Z,17.53
2022-09-10T14:33:27.619Z,17.46
2022-09-10T14:35:54.202Z,17.35
2022-09-10T14:38:30.826Z,17.31
2022-09-10T14:41:03.336Z,17.24
2022-09-10T14:43:33.687Z,17.13
2022-09-10T14:46:03.954Z,17.09
2022-09-10T14:48:38.443Z,17.02
2022-09-10T14:51:12.101Z,16.95
2022-09-10T14:53:39.443Z,16.98
2022-09-10T14:56:09.888Z,17.19
2022-09-10T14:58:36.210Z,17.23
2022-09-10T15:01:03.346Z,17.30
2022-09-10T15:03:29.633Z,17.24
2022-09-10T15:05:55.941Z,17.19
2022-09-10T15:08:22.304Z,17.30
2022-09-10T15:10:49.454Z,17.39
2022-09-10T15:13:18.826Z,17.40
2022-09-10T15:15:48.336Z,17.43
2022-09-10T15:18:14.857Z,17.47
2022-09-10T15:20:41.406Z,17.57
2022-09-10T15:23:07.745Z,17.55
2022-09-10T15:25:40.470Z,17.62
2022-09-10T15:28:09.608Z,17.68
2022-09-10T15:30:36.779Z,17.74
2022-09-10T15:33:06.284Z,17.74
2022-09-10T15:35:32.841Z,17.75
2022-09-10T15:38:01.592Z,17.68
2022-09-10T15:40:27.912Z,17.72
2022-09-10T15:42:54.285Z,17.68
2022-09-10T15:45:20.572Z,17.64
2022-09-10T15:47:46.923Z,17.61
2022-09-10T15:50:15.596Z,17.55
2022-09-10T15:52:41.930Z,17.56
2022-09-10T15:55:08.473Z,17.48
2022-09-10T15:57:35.894Z,17.43
2022-09-10T16:00:06.572Z,17.40
2022-09-10T16:02:33.611Z,17.33
2022-09-10T16:05:02.848Z,17.29
2022-09-10T16:07:29.496Z,17.25
2022-09-10T16:09:55.859Z,17.28
2022-09-10T16:12:22.178Z,17.29
2022-09-10T16:14:48.484Z,17.29
2022-09-10T16:17:15.243Z,17.30
2022-09-10T16:19:41.590Z,17.25
2022-09-10T16:22:08.119Z,17.18
2022-09-10T16:24:34.456Z,17.11
2022-09-10T16:27:00.787Z,17.05
2022-09-10T16:29:28.510Z,17.08
2022-09-10T16:31:56.392Z,16.98
2022-09-10T16:34:22.700Z,16.93
2022-09-10T16:36:49.435Z,16.98
2022-09-10T16:39:16.275Z,16.83
2022-09-10T16:41:43.748Z,16.97
2022-09-10T16:44:11.206Z,16.92
2022-09-10T16:46:38.422Z,16.88
2022-09-10T16:49:05.821Z,16.76
2022-09-10T16:51:34.427Z,16.71
2022-09-10T16:54:02.413Z,16.66
2022-09-10T16:56:49.134Z,16.61
2022-09-10T16:59:22.639Z,16.69
2022-09-10T17:01:49.720Z,16.93
2022-09-10T17:04:20.668Z,17.07
2022-09-10T17:06:48.778Z,17.13
2022-09-10T17:09:15.445Z,17.17
2022-09-10T17:11:41.783Z,17.15
2022-09-10T17:14:08.235Z,17.20
2022-09-10T17:16:37.484Z,17.20
2022-09-10T17:19:07.082Z,17.17
2022-09-10T17:21:36.810Z,17.19
2022-09-10T17:24:04.090Z,17.14
2022-09-10T17:26:31.339Z,17.09
2022-09-10T17:28:59.396Z,17.12
2022-09-10T17:31:27.659Z,17.10
2022-09-10T17:33:55.516Z,17.08
2022-09-10T17:36:22.294Z,17.03
2022-09-10T17:38:48.946Z,17.00
2022-09-10T17:41:15.326Z,16.98
2022-09-10T17:43:42.820Z,16.95
2022-09-10T17:46:14.809Z,16.81
2022-09-10T17:48:44.577Z,16.84
2022-09-10T17:51:15.342Z,16.79
2022-09-10T17:53:42.119Z,16.67
2022-09-10T17:56:09.403Z,16.60
2022-09-10T17:58:35.726Z,16.58
2022-09-10T18:01:04.440Z,16.41
2022-09-10T18:03:31.631Z,16.44
2022-09-10T18:06:04.898Z,16.32
2022-09-10T18:08:32.262Z,16.24
2022-09-10T18:11:06.240Z,16.18
2022-09-10T18:13:34.107Z,16.22
2022-09-10T18:16:11.243Z,16.04
2022-09-10T18:18:38.262Z,16.03
2022-09-10T18:21:18.055Z,16.17
2022-09-10T18:23:44.557Z,16.05
2022-09-10T18:26:15.141Z,15.98
2022-09-10T18:28:42.496Z,15.99
2022-09-10T18:31:09.742Z,15.87
2022-09-10T18:33:38.377Z,15.96
2022-09-10T18:36:24.177Z,15.86
2022-09-10T18:38:50.548Z,15.80
2022-09-10T18:41:21.943Z,15.81
2022-09-10T18:43:49.173Z,15.79
2022-09-10T18:46:16.023Z,15.77
2022-09-10T18:48:42.796Z,15.71
2022-09-10T18:51:11.583Z,15.87
2022-09-10T18:53:38.524Z,15.81
2022-09-10T18:56:24.255Z,15.86
2022-09-10T18:58:50.868Z,15.87
2022-09-10T19:01:17.655Z,15.88
2022-09-10T19:03:45.385Z,16.14
2022-09-10T19:06:16.004Z,16.19
2022-09-10T19:08:50.066Z,16.31
2022-09-10T19:11:17.517Z,16.33
2022-09-10T19:13:48.232Z,16.43
2022-09-10T19:16:15.028Z,16.47
2022-09-10T19:18:42.090Z,16.57
2022-09-10T19:21:08.398Z,16.60
2022-09-10T19:23:35.317Z,16.63
2022-09-10T19:26:01.922Z,16.56
2022-09-10T19:28:33.492Z,16.66
2022-09-10T19:31:04.931Z,16.67
2022-09-10T19:33:32.010Z,16.66
2022-09-10T19:36:02.970Z,16.69
2022-09-10T19:38:37.496Z,16.65
2022-09-10T19:41:12.198Z,16.67
2022-09-10T19:43:40.204Z,16.68
2022-09-10T19:46:08.171Z,16.61
2022-09-10T19:48:34.516Z,16.57
2022-09-10T19:51:01.936Z,16.51
2022-09-10T19:53:28.401Z,16.50
2022-09-10T19:55:54.747Z,16.48
2022-09-10T19:58:21.217Z,16.37
2022-09-10T20:00:47.601Z,16.34
2022-09-10T20:03:14.570Z,16.28
2022-09-10T20:05:42.581Z,16.23
2022-09-10T20:08:09.765Z,16.14
2022-09-10T20:10:37.135Z,16.02
2022-09-10T20:13:03.478Z,15.83
2022-09-10T20:15:29.778Z,15.78
2022-09-10T20:17:56.643Z,15.70
2022-09-10T20:20:22.959Z,15.81
2022-09-10T20:22:49.282Z,15.78
2022-09-10T20:25:15.595Z,15.73
2022-09-10T20:27:41.916Z,15.72
2022-09-10T20:30:11.765Z,15.68
2022-09-10T20:32:38.112Z,15.61
2022-09-10T20:35:05.547Z,15.60
2022-09-10T20:37:31.830Z,15.46
2022-09-10T20:39:58.438Z,15.51
2022-09-10T20:42:27.722Z,15.38
2022-09-10T20:44:55.395Z,15.36
2022-09-10T20:47:24.120Z,15.33
2022-09-10T20:49:50.522Z,15.32
2022-09-10T20:52:16.904Z,15.35
2022-09-10T20:54:43.198Z,15.35
2022-09-10T20:57:09.561Z,15.42
2022-09-10T20:59:36.782Z,15.34
2022-09-10T21:02:03.246Z,15.37
2022-09-10T21:04:29.696Z,15.34
2022-09-10T21:06:55.981Z,15.37
2022-09-10T21:09:22.266Z,15.39
2022-09-10T21:11:49.193Z,15.34
2022-09-10T21:14:15.485Z,15.35
2022-09-10T21:16:43.149Z,15.33
2022-09-10T21:19:10.771Z,15.31
2022-09-10T21:21:39.285Z,15.31
2022-09-10T21:24:13.228Z,15.33
2022-09-10T21:26:40.469Z,15.31
2022-09-10T21:29:08.119Z,15.29
2022-09-10T21:31:36.182Z,15.28
2022-09-10T21:34:03.715Z,15.24
2022-09-10T21:36:30.876Z,15.21
2022-09-10T21:38:59.222Z,15.16
2022-09-10T21:41:33.370Z,15.08
2022-09-10T21:44:00.893Z,15.10
2022-09-10T21:46:27.502Z,15.07
2022-09-10T21:48:53.844Z,14.96
2022-09-10T21:51:20.638Z,14.96
2022-09-10T21:53:47.589Z,14.95
2022-09-10T21:56:17.301Z,14.95
2022-09-10T21:58:44.735Z,14.97
2022-09-10T22:01:11.901Z,14.90
2022-09-10T22:03:38.889Z,14.76
2022-09-10T22:06:09.553Z,14.69
2022-09-10T22:08:36.710Z,14.63
2022-09-10T22:11:10.392Z,14.66
2022-09-10T22:13:37.915Z,14.71
2022-09-10T22:16:07.241Z,14.65
2022-09-10T22:18:34.125Z,14.36
2022-09-10T22:21:00.794Z,14.18
2022-09-10T22:23:31.366Z,14.10
2022-09-10T22:26:03.633Z,13.95
2022-09-10T22:28:34.619Z,14.17
2022-09-10T22:31:06.173Z,14.19
2022-09-10T22:33:33.007Z,14.09
2022-09-10T22:36:09.476Z,14.16
2022-09-10T22:38:35.841Z,14.16
2022-09-10T22:41:03.257Z,14.19
2022-09-10T22:43:29.806Z,14.20
2022-09-10T22:45:56.154Z,14.20
2022-09-10T22:48:22.465Z,14.22
2022-09-10T22:50:48.767Z,14.20
2022-09-10T22:53:16.301Z,14.38
2022-09-10T22:55:42.608Z,14.44
2022-09-10T22:58:09.953Z,14.63
2022-09-10T23:00:36.538Z,14.73
2022-09-10T23:03:04.685Z,14.69
2022-09-10T23:05:31.294Z,14.86
2022-09-10T23:07:57.661Z,14.95
2022-09-10T23:10:24.248Z,15.01
2022-09-10T23:12:50.586Z,15.07
2022-09-10T23:15:16.913Z,15.16
2022-09-10T23:17:43.198Z,15.19
2022-09-10T23:20:09.833Z,15.26
2022-09-10T23:22:36.123Z,15.30
2022-09-10T23:25:02.410Z,15.36
2022-09-10T23:27:28.910Z,15.38
2022-09-10T23:29:55.853Z,15.39
2022-09-10T23:32:22.364Z,15.37
2022-09-10T23:34:50.654Z,15.31
2022-09-10T23:37:17.416Z,15.14
2022-09-10T23:39:43.759Z,15.15
2022-09-10T23:42:10.082Z,15.11
2022-09-10T23:44:36.610Z,14.96
2022-09-10T23:47:02.944Z,14.97
2022-09-10T23:49:29.310Z,14.80
2022-09-10T23:51:55.625Z,14.65
2022-09-10T23:54:22.117Z,14.62
2022-09-10T23:56:48.409Z,14.63
2022-09-10T23:59:15.312Z,14.56
